createdAt,value
2022-08-09T00:00:16.031Z,17.85
2022-08-09T00:03:10.911Z,17.83
2022-08-09T00:06:18.729Z,17.84
2022-08-09T00:08:42.682Z,17.86
2022-08-09T00:11:25.248Z,17.88
2022-08-09T00:13:56.096Z,17.90
2022-08-09T00:16:26.034Z,17.91
2022-08-09T00:19:09.489Z,17.92
2022-08-09T00:21:43.122Z,17.92
2022-08-09T00:24:28.043Z,17.92
2022-08-09T00:26:59.700Z,17.90
2022-08-09T00:29:39.251Z,17.89
2022-08-09T00:32:25.644Z,17.86
2022-08-09T00:34:56.751Z,17.83
2022-08-09T00:37:30.295Z,17.84
2022-08-09T00:40:13.928Z,17.84
2022-08-09T00:44:13.075Z,17.84
2022-08-09T00:45:35.392Z,17.84
2022-08-09T00:48:05.730Z,17.86
2022-08-09T00:50:37.670Z,17.89
2022-08-09T00:53:10.127Z,17.91
2022-08-09T00:56:03.856Z,17.92
2022-08-09T00:58:31.650Z,17.93
2022-08-09T01:01:00.773Z,17.95
2022-08-09T01:03:32.778Z,17.98
2022-08-09T01:06:17.814Z,18.01
2022-08-09T01:09:20.435Z,18.04
2022-08-09T01:12:01.463Z,18.03
2022-08-09T01:14:52.597Z,18.03
2022-08-09T01:17:50.165Z,18.03
2022-08-09T01:20:38.987Z,18.03
2022-08-09T01:24:00.774Z,18.01
2022-08-09T01:26:28.178Z,17.99
2022-08-09T01:29:00.934Z,17.98
2022-08-09T01:32:43.965Z,17.99
2022-08-09T01:34:22.897Z,18.01
2022-08-09T01:36:52.672Z,18.00
2022-08-09T01:39:23.607Z,18.01
2022-08-09T01:42:00.592Z,18.00
2022-08-09T01:44:31.750Z,18.00
2022-08-09T01:47:02.878Z,18.03
2022-08-09T01:49:39.134Z,18.02
2022-08-09T01:52:14.809Z,17.99
2022-08-09T01:54:48.847Z,18.00
2022-08-09T01:57:24.011Z,18.00
2022-08-09T02:00:00.297Z,18.03
2022-08-09T02:02:46.933Z,18.09
2022-08-09T02:05:19.075Z,18.12
2022-08-09T02:08:35.353Z,18.09
2022-08-09T02:10:51.154Z,18.10
2022-08-09T02:13:26.151Z,18.11
2022-08-09T02:16:11.566Z,18.10
2022-08-09T02:18:42.991Z,18.09
2022-08-09T02:21:22.040Z,18.06
2022-08-09T02:23:56.575Z,18.05
2022-08-09T02:26:28.549Z,18.06
2022-08-09T02:29:00.518Z,18.06
2022-08-09T02:31:37.417Z,18.07
2022-08-09T02:34:40.238Z,18.08
2022-08-09T02:37:06.776Z,18.07
2022-08-09T02:39:42.614Z,18.07
2022-08-09T02:42:39.785Z,18.08
2022-08-09T02:45:13.334Z,18.09
2022-08-09T02:47:57.240Z,18.15
2022-08-09T02:50:33.271Z,18.21
2022-08-09T02:53:05.079Z,18.17
2022-08-09T02:55:46.307Z,18.12
2022-08-09T02:58:36.009Z,18.09
2022-08-09T03:01:11.054Z,18.08
2022-08-09T03:04:16.677Z,18.06
2022-08-09T03:06:36.185Z,18.09
2022-08-09T03:09:06.288Z,18.14
2022-08-09T03:12:05.694Z,18.16
2022-08-09T03:14:28.188Z,18.19
2022-08-09T03:16:59.515Z,18.21
2022-08-09T03:19:57.651Z,18.13
2022-08-09T03:22:41.819Z,18.11
2022-08-09T03:25:27.037Z,18.13
2022-08-09T03:28:01.241Z,18.20
2022-08-09T03:30:33.830Z,18.26
2022-08-09T03:33:17.969Z,18.25
2022-08-09T03:36:12.429Z,18.30
2022-08-09T03:38:43.614Z,18.36
2022-08-09T03:41:16.369Z,18.37
2022-08-09T03:44:03.624Z,18.28
2022-08-09T03:46:35.614Z,18.22
2022-08-09T03:49:08.144Z,18.24
2022-08-09T03:51:57.036Z,18.31
2022-08-09T03:54:34.438Z,18.37
2022-08-09T03:57:18.699Z,18.39
2022-08-09T03:59:55.350Z,18.32
2022-08-09T04:02:28.165Z,18.35
2022-08-09T04:05:00.755Z,18.43
2022-08-09T04:07:33.769Z,18.54
2022-08-09T04:10:29.162Z,18.66
2022-08-09T04:13:11.530Z,18.70
2022-08-09T04:16:17.751Z,18.76
2022-08-09T04:18:28.342Z,18.84
2022-08-09T04:20:56.411Z,18.95
2022-08-09T04:23:25.849Z,19.07
2022-08-09T04:25:55.423Z,19.15
2022-08-09T04:28:34.264Z,19.21
2022-08-09T04:31:09.192Z,19.32
2022-08-09T04:33:53.049Z,19.35
2022-08-09T04:36:28.705Z,19.32
2022-08-09T04:38:59.855Z,19.34
2022-08-09T04:41:33.212Z,19.37
2022-08-09T04:44:06.581Z,19.46
2022-08-09T04:46:59.606Z,19.50
2022-08-09T04:49:53.296Z,19.41
2022-08-09T04:52:26.498Z,19.49
2022-08-09T04:54:57.238Z,19.63
2022-08-09T04:57:26.057Z,19.74
2022-08-09T04:59:55.492Z,19.82
2022-08-09T05:02:27.323Z,19.97
2022-08-09T05:04:56.265Z,20.09
2022-08-09T05:07:29.129Z,20.13
2022-08-09T05:10:02.053Z,20.15
2022-08-09T05:12:33.307Z,20.31
2022-08-09T05:15:03.553Z,20.46
2022-08-09T05:18:37.863Z,20.57
2022-08-09T05:20:21.533Z,20.61
2022-08-09T05:23:55.319Z,20.65
2022-08-09T05:25:50.925Z,20.84
2022-08-09T05:28:21.561Z,21.09
2022-08-09T05:30:52.895Z,21.33
2022-08-09T05:33:32.657Z,21.52
2022-08-09T05:36:02.447Z,21.49
2022-08-09T05:38:31.688Z,21.66
2022-08-09T05:41:00.005Z,21.80
2022-08-09T05:43:29.102Z,21.86
2022-08-09T05:46:00.061Z,21.92
2022-08-09T05:48:33.147Z,21.96
2022-08-09T05:51:43.163Z,22.07
2022-08-09T05:53:57.063Z,22.24
2022-08-09T05:56:27.488Z,22.41
2022-08-09T05:58:59.303Z,22.50
2022-08-09T06:01:33.643Z,22.60
2022-08-09T06:04:05.973Z,22.66
2022-08-09T06:06:34.662Z,22.48
2022-08-09T06:09:09.841Z,22.33
2022-08-09T06:11:41.223Z,22.22
2022-08-09T06:14:25.416Z,22.11
2022-08-09T06:17:14.474Z,22.03
2022-08-09T06:19:44.001Z,21.83
2022-08-09T06:22:15.014Z,21.83
2022-08-09T06:24:44.797Z,21.99
2022-08-09T06:27:15.551Z,22.20
2022-08-09T06:29:48.307Z,22.34
2022-08-09T06:32:59.606Z,22.59
2022-08-09T06:35:16.336Z,22.84
2022-08-09T06:37:52.778Z,23.01
2022-08-09T06:40:33.993Z,23.16
2022-08-09T06:48:47.835Z,23.48
2022-08-09T06:51:17.783Z,23.66
2022-08-09T06:53:45.872Z,23.80
2022-08-09T06:56:18.779Z,23.92
2022-08-09T07:00:50.919Z,23.91
2022-08-09T07:02:04.549Z,24.05
2022-08-09T07:04:34.210Z,24.28
2022-08-09T07:07:04.819Z,24.43
2022-08-09T07:09:53.394Z,24.56
2022-08-09T07:12:22.364Z,24.60
2022-08-09T07:16:38.485Z,24.71
2022-08-09T07:18:02.049Z,24.79
2022-08-09T07:20:30.933Z,24.79
2022-08-09T07:22:59.929Z,24.78
2022-08-09T07:25:29.089Z,24.85
2022-08-09T07:27:57.345Z,25.07
2022-08-09T07:30:27.918Z,25.18
2022-08-09T07:33:01.252Z,25.28
2022-08-09T07:35:53.582Z,25.44
2022-08-09T07:38:23.659Z,25.70
2022-08-09T07:41:11.099Z,25.68
2022-08-09T07:43:55.807Z,25.53
2022-08-09T07:46:27.748Z,25.39
2022-08-09T07:49:00.425Z,25.40
2022-08-09T07:52:03.472Z,25.57
2022-08-09T07:54:19.158Z,25.65
2022-08-09T07:56:55.986Z,25.76
2022-08-09T07:59:25.250Z,25.95
2022-08-09T08:02:04.987Z,26.21
2022-08-09T08:04:34.305Z,26.45
2022-08-09T08:07:15.172Z,26.42
2022-08-09T08:10:08.084Z,26.33
2022-08-09T08:12:43.599Z,26.25
2022-08-09T08:15:16.758Z,26.13
2022-08-09T08:17:58.452Z,26.09
2022-08-09T08:20:32.433Z,26.09
2022-08-09T08:23:16.966Z,26.03
2022-08-09T08:25:53.947Z,25.92
2022-08-09T08:28:35.075Z,25.85
2022-08-09T08:31:13.947Z,25.80
2022-08-09T08:33:53.521Z,25.85
2022-08-09T08:36:30.518Z,25.92
2022-08-09T08:39:00.623Z,26.06
2022-08-09T08:41:51.032Z,26.27
2022-08-09T08:44:27.269Z,26.34
2022-08-09T08:47:04.902Z,26.38
2022-08-09T08:49:48.520Z,26.68
2022-08-09T08:52:58.070Z,26.97
2022-08-09T08:55:10.719Z,27.25
2022-08-09T08:57:42.703Z,27.50
2022-08-09T09:00:20.936Z,27.84
2022-08-09T09:03:11.137Z,28.17
2022-08-09T09:05:58.655Z,28.35
2022-08-09T09:08:40.662Z,28.44
2022-08-09T09:11:17.498Z,28.51
2022-08-09T09:13:56.997Z,28.54
2022-08-09T09:16:34.527Z,28.57
2022-08-09T09:19:36.932Z,28.50
2022-08-09T09:22:16.807Z,28.52
2022-08-09T09:26:02.186Z,28.54
2022-08-09T09:28:05.507Z,28.57
2022-08-09T09:30:40.056Z,28.53
2022-08-09T09:33:16.949Z,28.57
2022-08-09T09:36:01.508Z,28.56
2022-08-09T09:38:51.147Z,28.50
2022-08-09T09:41:27.779Z,28.36
2022-08-09T09:44:11.783Z,28.27
2022-08-09T09:46:51.557Z,28.18
2022-08-09T09:49:56.219Z,28.18
2022-08-09T09:52:33.662Z,28.16
2022-08-09T09:55:16.595Z,28.18
2022-08-09T09:58:15.917Z,28.20
2022-08-09T10:01:31.544Z,28.27
2022-08-09T10:04:23.040Z,28.37
2022-08-09T10:07:03.478Z,28.53
2022-08-09T10:09:55.075Z,28.66
2022-08-09T10:12:43.517Z,28.76
2022-08-09T10:15:50.657Z,28.85
2022-08-09T10:18:12.991Z,28.97
2022-08-09T10:20:45.208Z,28.84
2022-08-09T10:23:20.243Z,28.67
2022-08-09T10:26:07.218Z,28.66
2022-08-09T10:28:41.069Z,28.84
2022-08-09T10:34:10.362Z,29.15
2022-08-09T10:36:50.350Z,29.13
2022-08-09T10:39:19.903Z,29.11
2022-08-09T10:41:48.554Z,28.87
2022-08-09T10:44:21.926Z,28.77
2022-08-09T10:47:01.097Z,28.30
2022-08-09T10:49:50.441Z,28.17
2022-08-09T10:52:35.741Z,28.12
2022-08-09T10:55:28.614Z,28.06
2022-08-09T10:58:04.515Z,27.87
2022-08-09T11:00:36.719Z,27.77
2022-08-09T11:03:46.863Z,27.74
2022-08-09T11:06:18.591Z,27.67
2022-08-09T11:08:54.110Z,27.62
2022-08-09T11:11:23.410Z,27.46
2022-08-09T11:14:44.065Z,27.32
2022-08-09T11:17:15.950Z,26.96
2022-08-09T11:20:10.994Z,26.70
2022-08-09T11:22:45.432Z,26.94
2022-08-09T11:25:26.082Z,27.13
2022-08-09T11:28:33.825Z,27.19
2022-08-09T11:31:34.202Z,27.17
2022-08-09T11:34:11.369Z,27.11
2022-08-09T11:36:44.317Z,27.09
2022-08-09T11:39:13.043Z,27.02
2022-08-09T11:41:45.293Z,27.00
2022-08-09T11:44:13.631Z,27.02
2022-08-09T11:46:57.282Z,27.06
2022-08-09T11:50:53.961Z,27.13
2022-08-09T11:53:20.828Z,27.19
2022-08-09T11:55:52.333Z,27.21
2022-08-09T11:58:32.402Z,27.19
2022-08-09T12:01:08.749Z,27.24
2022-08-09T12:03:56.953Z,27.32
2022-08-09T12:06:32.061Z,27.41
2022-08-09T12:09:17.573Z,27.39
2022-08-09T12:12:13.050Z,27.19
2022-08-09T12:15:07.715Z,27.21
2022-08-09T12:17:43.527Z,27.27
2022-08-09T12:20:21.716Z,27.25
2022-08-09T12:22:57.233Z,27.25
2022-08-09T12:25:35.833Z,27.35
2022-08-09T12:28:58.818Z,27.48
2022-08-09T12:31:30.796Z,27.66
2022-08-09T12:34:14.221Z,27.70
2022-08-09T12:36:58.675Z,27.65
2022-08-09T12:39:38.954Z,27.62
2022-08-09T12:42:16.581Z,27.67
2022-08-09T12:44:52.459Z,27.63
2022-08-09T12:47:24.301Z,27.43
2022-08-09T12:50:12.840Z,27.22
2022-08-09T12:53:09.481Z,27.28
2022-08-09T12:56:13.964Z,27.33
2022-08-09T12:58:24.393Z,27.39
2022-08-09T13:00:57.577Z,27.54
2022-08-09T13:03:53.701Z,27.63
2022-08-09T13:06:34.870Z,27.87
2022-08-09T13:09:06.141Z,28.04
2022-08-09T13:11:39.543Z,28.18
2022-08-09T13:14:42.412Z,28.22
2022-08-09T13:17:21.740Z,28.23
2022-08-09T13:20:09.445Z,28.20
2022-08-09T13:23:05.676Z,28.19
2022-08-09T13:25:54.369Z,28.22
2022-08-09T13:28:34.705Z,28.24
2022-08-09T13:32:13.376Z,28.21
2022-08-09T13:33:58.928Z,28.24
2022-08-09T13:36:41.110Z,28.24
2022-08-09T13:41:19.401Z,28.15
2022-08-09T13:42:13.411Z,28.18
2022-08-09T13:44:43.270Z,28.11
2022-08-09T13:47:33.000Z,28.19
2022-08-09T13:50:18.124Z,28.19
2022-08-09T13:52:59.031Z,28.19
2022-08-09T13:55:29.141Z,28.27
2022-08-09T13:57:59.567Z,28.34
2022-08-09T14:00:29.582Z,28.24
2022-08-09T14:03:03.415Z,28.03
2022-08-09T14:06:00.089Z,27.90
2022-08-09T14:08:31.806Z,27.79
2022-08-09T14:11:00.552Z,27.61
2022-08-09T14:14:23.657Z,27.39
2022-08-09T14:16:28.672Z,27.33
2022-08-09T14:18:58.485Z,27.38
2022-08-09T14:21:29.634Z,27.32
2022-08-09T14:24:05.741Z,27.32
2022-08-09T14:26:51.195Z,27.24
2022-08-09T14:30:04.052Z,27.01
2022-08-09T14:32:10.881Z,26.87
2022-08-09T14:34:41.419Z,26.71
2022-08-09T14:37:09.948Z,26.59
2022-08-09T14:39:46.684Z,26.68
2022-08-09T14:42:31.595Z,26.80
2022-08-09T14:46:55.486Z,26.72
2022-08-09T14:47:57.995Z,26.73
2022-08-09T14:50:31.478Z,26.47
2022-08-09T14:53:11.038Z,26.27
2022-08-09T14:55:49.915Z,26.24
2022-08-09T14:58:19.841Z,26.23
2022-08-09T15:00:51.109Z,26.07
2022-08-09T15:03:21.220Z,25.97
2022-08-09T15:05:53.749Z,26.00
2022-08-09T15:08:30.303Z,25.72
2022-08-09T15:11:00.393Z,25.64
2022-08-09T15:13:56.110Z,25.35
2022-08-09T15:16:18.652Z,24.81
2022-08-09T15:18:48.269Z,24.48
2022-08-09T15:21:58.617Z,24.29
2022-08-09T15:24:12.797Z,23.96
2022-08-09T15:26:45.411Z,23.55
2022-08-09T15:30:59.255Z,23.27
2022-08-09T15:32:04.270Z,23.08
2022-08-09T15:34:35.296Z,22.91
2022-08-09T15:37:37.102Z,22.75
2022-08-09T15:40:19.792Z,22.58
2022-08-09T15:42:50.720Z,22.38
2022-08-09T15:45:21.577Z,22.22
2022-08-09T15:48:03.175Z,22.09
2022-08-09T15:50:39.130Z,21.98
2022-08-09T15:53:17.754Z,21.88
2022-08-09T15:56:21.166Z,21.79
2022-08-09T15:58:46.439Z,21.68
2022-08-09T16:01:14.857Z,21.60
2022-08-09T16:03:43.049Z,21.49
2022-08-09T16:06:29.290Z,21.35
2022-08-09T16:09:01.239Z,21.31
2022-08-09T16:11:34.077Z,21.29
2022-08-09T16:14:08.025Z,21.29
2022-08-09T16:16:37.820Z,21.33
2022-08-09T16:19:08.658Z,21.34
2022-08-09T16:21:38.198Z,21.41
2022-08-09T16:24:08.833Z,21.44
2022-08-09T16:26:56.896Z,21.45
2022-08-09T16:29:37.915Z,21.41
2022-08-09T16:32:33.419Z,21.30
2022-08-09T16:35:02.423Z,21.17
2022-08-09T16:37:53.435Z,21.06
2022-08-09T16:40:29.521Z,21.01
2022-08-09T16:43:05.030Z,20.92
2022-08-09T16:45:33.215Z,20.84
2022-08-09T16:48:40.588Z,20.84
2022-08-09T16:50:59.718Z,20.84
2022-08-09T16:53:37.430Z,20.79
2022-08-09T16:56:10.155Z,20.74
2022-08-09T16:58:49.859Z,20.68
2022-08-09T17:01:24.746Z,20.66
2022-08-09T17:03:54.907Z,20.62
2022-08-09T17:06:28.817Z,20.51
2022-08-09T17:09:16.251Z,20.30
2022-08-09T17:11:51.341Z,19.97
2022-08-09T17:14:27.246Z,19.86
2022-08-09T17:17:02.730Z,19.67
2022-08-09T17:20:05.915Z,19.51
2022-08-09T17:22:30.910Z,19.26
2022-08-09T17:25:03.769Z,19.11
2022-08-09T17:27:38.585Z,19.06
2022-08-09T17:30:12.855Z,19.00
2022-08-09T17:32:45.470Z,18.93
2022-08-09T17:35:15.843Z,18.87
2022-08-09T17:38:10.193Z,18.84
2022-08-09T17:40:35.384Z,18.80
2022-08-09T17:43:32.763Z,18.77
2022-08-09T17:46:02.920Z,18.75
2022-08-09T17:48:34.610Z,18.73
2022-08-09T17:51:10.093Z,18.72
2022-08-09T17:53:55.001Z,18.71
2022-08-09T17:56:28.900Z,18.70
2022-08-09T17:59:03.018Z,18.69
2022-08-09T18:02:03.572Z,18.67
2022-08-09T18:04:25.851Z,18.67
2022-08-09T18:06:55.461Z,18.71
2022-08-09T18:09:40.302Z,18.74
2022-08-09T18:12:19.485Z,18.71
2022-08-09T18:14:54.409Z,18.71
2022-08-09T18:18:03.805Z,18.69
2022-08-09T18:20:56.772Z,18.68
2022-08-09T18:23:07.748Z,18.68
2022-08-09T18:25:57.649Z,18.71
2022-08-09T18:30:38.342Z,18.74
2022-08-09T18:31:24.750Z,18.77
2022-08-09T18:34:01.246Z,18.77
2022-08-09T18:36:32.448Z,18.76
2022-08-09T18:39:06.763Z,18.78
2022-08-09T18:41:37.092Z,18.78
2022-08-09T18:44:12.900Z,18.80
2022-08-09T18:46:47.910Z,18.79
2022-08-09T18:49:20.314Z,18.80
2022-08-09T18:51:57.836Z,18.81
2022-08-09T18:54:29.782Z,18.79
2022-08-09T18:57:06.102Z,18.76
2022-08-09T18:59:51.456Z,18.78
2022-08-09T19:02:30.728Z,18.80
2022-08-09T19:05:19.784Z,18.83
2022-08-09T19:08:04.938Z,18.87
2022-08-09T19:10:40.221Z,18.87
2022-08-09T19:13:20.027Z,18.90
2022-08-09T19:15:52.728Z,18.91
2022-08-09T19:18:35.099Z,18.90
2022-08-09T19:21:09.563Z,18.88
2022-08-09T19:24:36.524Z,18.90
2022-08-09T19:26:31.815Z,18.91
2022-08-09T19:29:15.149Z,18.96
2022-08-09T19:31:51.172Z,19.02
2022-08-09T19:34:22.579Z,19.05
2022-08-09T19:36:55.100Z,19.11
2022-08-09T19:39:29.099Z,19.15
2022-08-09T19:42:19.535Z,19.14
2022-08-09T19:44:50.598Z,19.14
2022-08-09T19:47:23.073Z,19.11
2022-08-09T19:50:08.671Z,19.09
2022-08-09T19:52:49.619Z,19.07
2022-08-09T19:55:30.468Z,19.01
2022-08-09T19:57:59.582Z,18.91
2022-08-09T20:00:27.827Z,18.86
2022-08-09T20:04:08.197Z,18.81
2022-08-09T20:05:46.519Z,18.77
2022-08-09T20:08:25.133Z,18.73
2022-08-09T20:11:04.716Z,18.68
2022-08-09T20:13:37.129Z,18.67
2022-08-09T20:16:34.445Z,18.70
2022-08-09T20:19:03.980Z,18.72
2022-08-09T20:21:56.076Z,18.74
2022-08-09T20:24:33.678Z,18.74
2022-08-09T20:27:08.664Z,18.75
2022-08-09T20:29:39.067Z,18.76
2022-08-09T20:32:28.813Z,18.79
2022-08-09T20:35:01.754Z,18.79
2022-08-09T20:38:18.511Z,18.82
2022-08-09T20:40:27.238Z,18.87
2022-08-09T20:42:59.895Z,18.90
2022-08-09T20:45:57.034Z,18.92
2022-08-09T20:48:21.664Z,18.84
2022-08-09T20:50:55.696Z,18.76
2022-08-09T20:53:36.434Z,18.74
2022-08-09T20:56:09.692Z,18.69
2022-08-09T20:58:58.596Z,18.63
2022-08-09T21:01:35.485Z,18.56
2022-08-09T21:05:50.886Z,18.51
2022-08-09T21:07:13.166Z,18.49
2022-08-09T21:09:46.029Z,18.47
2022-08-09T21:15:15.056Z,18.40
2022-08-09T21:18:25.184Z,18.41
2022-08-09T21:20:33.147Z,18.42
2022-08-09T21:23:04.340Z,18.42
2022-08-09T21:25:56.130Z,18.43
2022-08-09T21:28:34.833Z,18.44
2022-08-09T21:31:17.471Z,18.46
2022-08-09T21:33:51.716Z,18.50
2022-08-09T21:36:25.956Z,18.53
2022-08-09T21:38:59.180Z,18.54
2022-08-09T21:42:00.187Z,18.54
2022-08-09T21:44:34.197Z,18.57
2022-08-09T21:47:08.994Z,18.58
2022-08-09T21:49:40.379Z,18.58
2022-08-09T21:52:14.861Z,18.57
2022-08-09T21:55:03.033Z,18.61
2022-08-09T21:57:38.174Z,18.64
2022-08-09T22:00:26.051Z,18.63
2022-08-09T22:02:59.068Z,18.61
2022-08-09T22:05:36.745Z,18.61
2022-08-09T22:08:13.866Z,18.59
2022-08-09T22:11:49.948Z,18.60
2022-08-09T22:13:36.624Z,18.55
2022-08-09T22:16:07.874Z,18.48
2022-08-09T22:18:53.306Z,18.42
2022-08-09T22:21:27.475Z,18.34
2022-08-09T22:24:17.119Z,18.27
2022-08-09T22:26:51.646Z,18.25
2022-08-09T22:29:28.461Z,18.23
2022-08-09T22:32:00.544Z,18.22
2022-08-09T22:34:28.740Z,18.21
2022-08-09T22:36:59.039Z,18.22
2022-08-09T22:39:56.078Z,18.22
2022-08-09T22:42:21.907Z,18.20
2022-08-09T22:48:05.187Z,18.21
2022-08-09T22:48:16.014Z,18.23
2022-08-09T22:50:32.457Z,18.23
2022-08-09T22:53:03.565Z,18.26
2022-08-09T22:56:06.673Z,18.27
2022-08-09T22:58:32.998Z,18.28
2022-08-09T23:01:03.463Z,18.24
2022-08-09T23:04:05.604Z,18.20
2022-08-09T23:06:34.925Z,18.24
2022-08-09T23:09:06.184Z,18.27
2022-08-09T23:11:34.355Z,18.29
2022-08-09T23:14:03.862Z,18.34
2022-08-09T23:16:32.202Z,18.38
2022-08-09T23:19:01.069Z,18.39
2022-08-09T23:21:33.701Z,18.37
2022-08-09T23:24:06.022Z,18.35
2022-08-09T23:26:36.803Z,18.38
2022-08-09T23:29:06.342Z,18.37
2022-08-09T23:31:34.426Z,18.35
2022-08-09T23:34:03.717Z,18.29
2022-08-09T23:36:33.500Z,18.25
2022-08-09T23:39:06.478Z,18.23
2022-08-09T23:41:35.416Z,18.16
2022-08-09T23:44:04.588Z,18.10
2022-08-09T23:46:32.562Z,18.07
2022-08-09T23:49:00.880Z,18.08
2022-08-09T23:51:28.958Z,18.09
2022-08-09T23:54:02.811Z,18.10
2022-08-09T23:56:51.973Z,18.09
2022-08-09T23:59:22.272Z,18.07
